Time;durP1;ratioP1;P1;durP2;ratioP2;P2;SDS_P1;SDS_P2;PMS_P1;PMS_P2;Temp;Humidity;BMP_temperature;BMP_pressure;BME280_temperature;BME280_humidity;BME280_pressure;Samples;Min_cycle;Max_cycle;Signal;HPM_P1;HPM_P2
2022/05/05 00:01:52;;;;;;;3.93;2.73;;;;;;;12.65;88.67;99487.69;8390090;28;20055;-70
2022/05/05 00:05:54;;;;;;;7.60;3.53;;;;;;;12.66;89.62;99497.22;8370371;28;20044;-70
2022/05/05 00:09:56;;;;;;;11.05;4.78;;;;;;;12.63;89.78;99498.13;8384457;28;20040;-70
2022/05/05 00:18:18;;;;;;;6.35;3.70;;;;;;;12.56;91.14;99504.25;8385324;28;20437;-69
2022/05/05 00:22:19;;;;;;;8.73;5.00;;;;;;;12.60;91.94;99503.38;8388393;28;20123;-70
2022/05/05 00:26:21;;;;;;;6.53;4.47;;;;;;;12.62;91.93;99505.97;8383366;28;20079;-71
2022/05/05 00:30:23;;;;;;;5.77;3.63;;;;;;;12.60;91.69;99505.97;8381328;28;20067;-70
2022/05/05 00:34:24;;;;;;;5.60;3.60;;;;;;;12.55;92.45;99509.47;8388361;28;20057;-70
2022/05/05 00:38:26;;;;;;;7.67;3.97;;;;;;;12.53;92.47;99514.72;8377105;28;20064;-70
2022/05/05 00:42:27;;;;;;;5.40;4.20;;;;;;;12.52;92.97;99519.94;8388460;28;20433;-69
2022/05/05 00:46:29;;;;;;;4.20;3.77;;;;;;;12.52;92.67;99517.34;8385968;28;20054;-70
2022/05/05 00:50:33;;;;;;;4.47;3.40;;;;;;;12.52;93.05;99517.34;8376843;28;20098;-69
2022/05/05 00:54:35;;;;;;;4.38;3.97;;;;;;;12.50;92.68;99524.31;8377576;28;20054;-70
2022/05/05 00:58:37;;;;;;;4.80;4.28;;;;;;;12.43;93.48;99523.50;8388042;28;20045;-70
2022/05/05 01:02:39;;;;;;;4.15;3.85;;;;;;;12.47;93.42;99526.94;8367140;28;20123;-70
2022/05/05 01:06:40;;;;;;;5.13;4.40;;;;;;;12.51;94.38;99528.63;8386026;28;20102;-71
2022/05/05 01:10:42;;;;;;;7.13;4.53;;;;;;;12.52;94.22;99528.63;8373907;28;20159;-71
2022/05/05 01:14:44;;;;;;;5.38;4.03;;;;;;;12.58;94.44;99527.72;8371892;28;20072;-71
2022/05/05 01:18:45;;;;;;;4.82;3.97;;;;;;;12.64;93.93;99525.91;8384653;28;20040;-71
2022/05/05 01:22:48;;;;;;;6.63;4.47;;;;;;;12.59;94.43;99532.91;8376509;28;20041;-70
2022/05/05 01:31:11;;;;;;;5.95;4.18;;;;;;;12.53;94.08;99540.75;8385134;28;20044;-70
2022/05/05 01:35:13;;;;;;;4.95;4.45;;;;;;;12.58;93.00;99544.19;8384532;28;20408;-70
2022/05/05 01:39:19;;;;;;;4.85;4.35;;;;;;;12.58;92.23;99545.94;8378825;28;20047;-70
2022/05/05 01:43:23;;;;;;;5.70;4.30;;;;;;;12.49;89.48;99551.22;8387060;28;20043;-71
2022/05/05 01:47:24;;;;;;;5.45;3.47;;;;;;;12.40;87.87;99557.41;8385072;28;20044;-70
2022/05/05 01:51:26;;;;;;;9.15;4.30;;;;;;;12.29;86.47;99559.22;8385300;28;20467;-70
2022/05/05 01:55:28;;;;;;;6.32;3.85;;;;;;;12.19;86.65;99561.03;8385675;28;20127;-70
2022/05/05 01:59:29;;;;;;;6.70;3.85;;;;;;;12.08;86.90;99573.28;8386451;28;20055;-70
2022/05/05 02:03:30;;;;;;;5.47;3.50;;;;;;;11.99;86.80;99578.53;8388481;28;20041;-70
2022/05/05 02:07:32;;;;;;;4.20;3.67;;;;;;;11.92;86.77;99582.06;8383678;28;20106;-70
2022/05/05 02:11:35;;;;;;;10.60;3.53;;;;;;;11.81;87.87;99587.34;8390064;28;20052;-70
2022/05/05 02:15:37;;;;;;;4.22;3.17;;;;;;;11.75;87.14;99588.22;8394366;28;20869;-70
2022/05/05 02:19:39;;;;;;;3.92;3.10;;;;;;;11.61;86.34;99592.63;8390068;28;20139;-70
2022/05/05 02:23:41;;;;;;;4.47;2.85;;;;;;;11.50;86.93;99597.91;8390485;28;20063;-70
2022/05/05 02:27:53;;;;;;;4.85;3.38;;;;;;;11.44;88.13;99595.31;8389784;28;20072;-70
2022/05/05 02:31:55;;;;;;;3.97;3.05;;;;;;;11.44;89.33;99595.31;8383615;28;20032;-69
2022/05/05 02:40:22;;;;;;;5.13;2.95;;;;;;;11.45;88.84;99585.78;8384728;28;20079;-70
2022/05/05 02:44:24;;;;;;;4.95;3.40;;;;;;;11.34;88.70;99588.44;8393779;28;20044;-70
2022/05/05 02:48:25;;;;;;;6.27;3.17;;;;;;;11.23;88.97;99589.34;8392779;28;20062;-70
2022/05/05 02:52:26;;;;;;;5.32;3.38;;;;;;;11.02;89.02;99593.75;8383427;28;20054;-70
2022/05/05 02:56:28;;;;;;;5.13;3.45;;;;;;;10.98;89.86;99593.75;8383977;28;20348;-70
2022/05/05 03:00:29;;;;;;;3.08;2.70;;;;;;;10.92;90.24;99607.63;8385596;28;20539;-70
2022/05/05 03:04:31;;;;;;;6.30;2.97;;;;;;;10.93;90.71;99603.28;8379529;28;20040;-69
2022/05/05 03:08:33;;;;;;;3.65;3.17;;;;;;;10.93;90.45;99611.06;8387114;28;20427;-70
2022/05/05 03:12:34;;;;;;;7.18;3.38;;;;;;;10.92;90.80;99605.00;8376262;28;20175;-70
2022/05/05 03:16:35;;;;;;;8.07;2.90;;;;;;;10.99;90.70;99604.16;8387793;28;20055;-70
2022/05/05 03:20:37;;;;;;;4.32;2.72;;;;;;;10.95;91.30;99609.34;8388040;28;20364;-69
2022/05/05 03:24:39;;;;;;;5.93;3.15;;;;;;;10.91;91.07;99613.69;8387700;28;20041;-69
2022/05/05 03:28:41;;;;;;;6.10;3.30;;;;;;;10.90;91.97;99615.41;8383051;28;20078;-70
2022/05/05 03:32:43;;;;;;;6.63;3.63;;;;;;;10.86;91.56;99612.84;8384050;28;20045;-70
2022/05/05 03:36:44;;;;;;;4.10;3.13;;;;;;;10.79;91.49;99614.59;8386642;28;20305;-70
2022/05/05 03:40:47;;;;;;;3.50;3.00;;;;;;;10.72;91.61;99615.44;8382761;28;20050;-70
2022/05/05 03:44:49;;;;;;;7.13;3.45;;;;;;;10.68;92.31;99618.06;8385557;28;20127;-70
2022/05/05 03:48:52;;;;;;;6.57;2.85;;;;;;;10.60;92.45;99628.47;8390701;28;20045;-70
2022/05/05 03:52:53;;;;;;;3.00;2.70;;;;;;;10.63;93.30;99618.06;8394960;28;20050;-70
2022/05/05 03:56:55;;;;;;;5.77;3.73;;;;;;;10.75;93.22;99624.97;8379318;28;20040;-71
2022/05/05 04:00:56;;;;;;;5.25;2.80;;;;;;;10.78;92.93;99633.66;8389997;28;20379;-70
2022/05/05 04:04:58;;;;;;;6.28;3.33;;;;;;;10.70;92.81;99639.69;8390967;28;20467;-70
2022/05/05 04:09:03;;;;;;;4.90;2.85;;;;;;;10.65;93.28;99647.50;8392296;28;20044;-71
2022/05/05 04:13:04;;;;;;;6.38;3.65;;;;;;;10.62;93.17;99654.44;8394024;28;20082;-71
2022/05/05 04:17:06;;;;;;;5.18;3.40;;;;;;;10.57;93.23;99657.88;8391246;28;20072;-71
2022/05/05 04:21:08;;;;;;;5.53;3.88;;;;;;;10.58;93.51;99658.72;8389607;28;20063;-70
2022/05/05 04:25:12;;;;;;;3.47;2.65;;;;;;;10.55;93.37;99667.38;8388437;28;20050;-71
2022/05/05 04:29:14;;;;;;;4.32;3.05;;;;;;;10.44;93.71;99666.53;8388573;28;20068;-70
2022/05/05 04:33:16;;;;;;;4.23;3.23;;;;;;;10.41;94.14;99671.75;8392960;28;20056;-70
2022/05/05 04:37:17;;;;;;;6.50;2.70;;;;;;;10.46;94.29;99677.78;8389199;28;20520;-71
2022/05/05 04:41:19;;;;;;;5.45;3.53;;;;;;;10.48;94.43;99670.00;8393590;28;20059;-70
2022/05/05 04:45:20;;;;;;;7.05;3.08;;;;;;;10.51;94.18;99682.97;8388449;28;20058;-70
2022/05/05 04:49:21;;;;;;;5.05;3.10;;;;;;;10.50;94.09;99687.31;8392803;28;20425;-70
2022/05/05 04:53:23;;;;;;;3.58;2.85;;;;;;;10.48;93.75;99686.44;8383485;28;20601;-70
2022/05/05 04:57:25;;;;;;;3.97;2.73;;;;;;;10.52;93.78;99688.16;8380934;28;20139;-70
2022/05/05 05:01:26;;;;;;;4.88;1.85;;;;;;;10.50;92.81;99696.81;8383266;28;20542;-71
2022/05/05 05:05:28;;;;;;;4.82;2.05;;;;;;;10.52;92.97;99692.50;8390789;28;20044;-71
2022/05/05 05:09:30;;;;;;;4.53;1.70;;;;;;;10.51;92.83;99694.22;8386546;28;20052;-70
2022/05/05 05:13:31;;;;;;;2.28;1.63;;;;;;;10.53;92.75;99704.59;8382112;28;20041;-71
2022/05/05 05:17:33;;;;;;;4.63;2.13;;;;;;;10.51;92.90;99698.56;8366402;28;20591;-71
2022/05/05 05:21:35;;;;;;;2.22;1.65;;;;;;;10.51;93.00;99703.75;8389783;28;20052;-71
2022/05/05 05:25:36;;;;;;;3.00;1.73;;;;;;;10.49;93.13;99708.06;8388007;28;20040;-71
2022/05/05 05:29:39;;;;;;;2.63;2.00;;;;;;;10.48;93.34;99701.16;8389705;28;20147;-71
2022/05/05 05:33:42;;;;;;;4.83;1.50;;;;;;;10.49;92.81;99708.94;8394180;28;20083;-70
2022/05/05 05:37:43;;;;;;;5.43;1.83;;;;;;;10.56;93.00;99718.47;8387154;28;20087;-70
2022/05/05 05:41:46;;;;;;;2.25;1.63;;;;;;;10.61;92.49;99712.44;8384615;28;20048;-71
2022/05/05 05:45:47;;;;;;;2.13;1.52;;;;;;;10.71;92.25;99717.59;8387951;28;20076;-71
2022/05/05 05:49:49;;;;;;;4.95;2.20;;;;;;;10.75;91.37;99710.66;8379882;28;20063;-71
2022/05/05 05:53:50;;;;;;;4.05;2.28;;;;;;;10.82;91.24;99718.47;8381067;28;20075;-71
2022/05/05 05:57:52;;;;;;;4.88;2.35;;;;;;;10.86;90.83;99712.41;8387953;28;20051;-71
2022/05/05 06:06:14;;;;;;;2.55;2.00;;;;;;;10.99;90.90;99715.88;8387717;28;20098;-70
2022/05/05 06:10:19;;;;;;;4.60;2.35;;;;;;;11.03;89.73;99714.13;8365208;28;20527;-71
2022/05/05 06:14:21;;;;;;;2.65;2.22;;;;;;;11.07;89.06;99708.94;8388842;28;20040;-71
2022/05/05 06:18:23;;;;;;;2.95;2.22;;;;;;;11.12;88.98;99714.97;8384579;28;20468;-71
2022/05/05 06:22:24;;;;;;;4.88;2.25;;;;;;;11.18;88.94;99704.59;8385200;28;20060;-71
2022/05/05 06:26:27;;;;;;;2.90;2.17;;;;;;;11.23;88.96;99709.78;8384748;28;20044;-70
2022/05/05 06:30:29;;;;;;;4.40;2.33;;;;;;;11.26;88.70;99709.75;8386037;28;20916;-70
2022/05/05 06:34:30;;;;;;;2.05;1.88;;;;;;;11.28;86.97;99713.22;8383231;28;20072;-70
2022/05/05 06:38:32;;;;;;;4.15;1.98;;;;;;;11.28;87.34;99720.16;8386961;28;20083;-70
2022/05/05 06:42:34;;;;;;;4.32;1.98;;;;;;;11.18;87.56;99724.50;8370147;28;20044;-70
2022/05/05 06:46:36;;;;;;;3.53;1.63;;;;;;;11.16;88.26;99726.25;8381580;28;20075;-71
2022/05/05 06:50:37;;;;;;;2.38;1.90;;;;;;;11.25;88.97;99733.16;8380220;28;20052;-70
2022/05/05 06:54:39;;;;;;;3.23;1.90;;;;;;;11.30;89.42;99731.41;8376344;28;20042;-70
2022/05/05 06:58:41;;;;;;;2.28;1.80;;;;;;;11.39;90.08;99729.66;8384044;28;20433;-70
2022/05/05 07:02:42;;;;;;;5.47;1.67;;;;;;;11.46;89.19;99731.38;8379117;28;20075;-72
2022/05/05 07:06:44;;;;;;;5.47;2.17;;;;;;;11.55;88.65;99725.28;8383746;28;20052;-72
2022/05/05 07:10:55;;;;;;;2.83;1.95;;;;;;;11.64;88.48;99730.44;8386187;28;20044;-72
2022/05/05 07:14:57;;;;;;;3.40;1.80;;;;;;;11.69;86.63;99730.47;8382958;28;20051;-72
2022/05/05 07:18:59;;;;;;;2.85;1.85;;;;;;;11.79;86.85;99734.78;8382593;28;20045;-71
2022/05/05 07:23:01;;;;;;;2.22;1.95;;;;;;;11.90;87.77;99729.53;8382100;28;20082;-72
2022/05/05 07:27:04;;;;;;;4.47;2.77;;;;;;;12.00;87.86;99732.06;8389076;28;20111;-72
2022/05/05 07:31:05;;;;;;;;;;;;;;;12.08;87.69;99732.91;8389595;28;20048;-72
2022/05/05 07:35:07;;;;;;;5.78;3.13;;;;;;;12.17;86.84;99739.78;8396550;28;19924;-72
2022/05/05 07:39:08;;;;;;;9.15;3.45;;;;;;;12.25;84.38;99750.19;8390068;28;20070;-73
2022/05/05 07:43:10;;;;;;;5.03;3.90;;;;;;;12.32;83.38;99751.88;8395866;28;20036;-72
2022/05/05 07:47:11;;;;;;;4.95;3.72;;;;;;;12.30;84.53;99757.09;8386444;28;20599;-72
2022/05/05 07:51:13;;;;;;;4.17;3.27;;;;;;;12.37;86.26;99756.16;8377932;28;20500;-72
2022/05/05 07:55:14;;;;;;;4.43;2.95;;;;;;;12.45;86.28;99763.09;8388311;28;20656;-72
2022/05/05 07:59:16;;;;;;;3.60;2.30;;;;;;;12.53;86.88;99777.78;8379387;28;20127;-73
2022/05/05 08:03:18;;;;;;;3.03;2.70;;;;;;;12.64;87.21;99778.59;8386527;28;20045;-71
2022/05/05 08:07:20;;;;;;;3.50;2.55;;;;;;;12.74;85.19;99770.69;8381847;28;20474;-71
2022/05/05 08:11:22;;;;;;;2.60;2.17;;;;;;;12.87;84.24;99774.94;8388104;28;20539;-71
2022/05/05 08:15:23;;;;;;;5.50;3.00;;;;;;;13.02;84.06;99775.69;8393571;28;20119;-71
2022/05/05 08:19:25;;;;;;;3.10;2.40;;;;;;;13.17;84.05;99782.53;8388968;28;20048;-71
2022/05/05 08:23:26;;;;;;;5.05;2.50;;;;;;;13.27;83.38;99780.72;8388513;28;20067;-71
2022/05/05 08:31:48;;;;;;;4.13;2.55;;;;;;;13.53;82.00;99788.31;8389170;28;20158;-72
2022/05/05 08:35:50;;;;;;;4.67;2.63;;;;;;;13.73;82.58;99793.34;8384976;28;20064;-72
2022/05/05 08:39:51;;;;;;;4.90;2.22;;;;;;;13.93;82.90;99798.31;8391247;28;20672;-71
2022/05/05 08:43:53;;;;;;;3.13;2.17;;;;;;;13.95;80.31;99796.56;8378941;28;20033;-72
2022/05/05 08:48:11;;;;;;;2.90;2.40;;;;;;;14.06;79.64;99803.41;8386665;28;20454;-72
2022/05/05 08:52:21;;;;;;;5.13;2.03;;;;;;;14.18;79.65;99805.88;8385411;28;20040;-74
2022/05/05 08:56:22;;;;;;;2.42;1.77;;;;;;;14.31;79.54;99810.91;8373622;28;20173;-72
2022/05/05 09:00:26;;;;;;;4.45;2.90;;;;;;;14.37;78.33;99811.72;8389726;28;20074;-72
2022/05/05 09:04:28;;;;;;;4.28;2.78;;;;;;;14.39;77.14;99814.31;8381956;28;20038;-72
2022/05/05 09:08:32;;;;;;;4.07;2.75;;;;;;;14.49;77.22;99811.56;8380931;28;20055;-72
2022/05/05 09:12:35;;;;;;;2.80;2.47;;;;;;;14.62;76.43;99814.03;8383018;28;20044;-73
2022/05/05 09:16:46;;;;;;;3.13;2.55;;;;;;;14.75;75.77;99821.69;8387711;28;20040;-72
2022/05/05 09:20:50;;;;;;;6.50;3.97;;;;;;;14.76;73.84;99819.94;8382208;28;20135;-72
2022/05/05 09:24:53;;;;;;;3.25;2.25;;;;;;;14.94;74.27;99824.03;8387596;28;20574;-72
2022/05/05 09:28:56;;;;;;;5.18;2.65;;;;;;;15.13;72.46;99827.22;8364050;28;20044;-72
2022/05/05 09:32:57;;;;;;;3.50;2.65;;;;;;;15.28;70.58;99830.44;8380804;28;20068;-72
2022/05/05 09:37:18;;;;;;;5.40;2.60;;;;;;;15.42;71.54;99827.56;8326788;28;20061;-72
2022/05/05 09:41:21;;;;;;;3.92;2.53;;;;;;;15.50;69.21;99840.56;8328945;28;20150;-72
2022/05/05 09:45:32;;;;;;;4.70;2.08;;;;;;;15.62;68.20;99820.31;8346408;28;20071;-72
2022/05/05 09:49:34;;;;;;;6.65;2.65;;;;;;;15.86;68.48;99826.81;8356524;28;20079;-72
2022/05/05 09:57:58;;;;;;;4.43;2.35;;;;;;;16.13;65.71;99838.50;8352182;28;20037;-72
2022/05/05 10:02:07;;;;;;;3.25;2.25;;;;;;;16.30;66.17;99839.03;8338579;28;20492;-71
2022/05/05 10:06:17;;;;;;;4.80;2.40;;;;;;;16.49;65.50;99831.66;8353204;28;20037;-72
2022/05/05 10:10:19;;;;;;;3.63;2.47;;;;;;;16.73;65.70;99835.56;8332904;28;20490;-72
2022/05/05 10:14:20;;;;;;;4.95;2.78;;;;;;;16.88;63.68;99834.34;8329751;28;20041;-72
2022/05/05 10:18:23;;;;;;;5.70;3.13;;;;;;;16.96;62.52;99839.41;8336264;28;20071;-72
2022/05/05 10:22:36;;;;;;;2.28;2.05;;;;;;;16.82;61.16;99835.31;8334770;28;20077;-72
2022/05/05 10:26:39;;;;;;;3.67;2.70;;;;;;;16.90;62.53;99841.28;8355336;28;20438;-72
2022/05/05 10:30:40;;;;;;;6.82;2.95;;;;;;;17.02;63.09;99840.13;8351125;28;20580;-72
2022/05/05 10:34:45;;;;;;;7.03;3.60;;;;;;;17.12;61.62;99838.16;8358109;28;20171;-72
2022/05/05 10:38:49;;;;;;;5.30;3.63;;;;;;;17.20;60.61;99837.03;8383167;28;20051;-72
2022/05/05 10:42:51;;;;;;;4.55;3.40;;;;;;;17.13;58.70;99839.88;8365068;28;20040;-72
2022/05/05 10:46:57;;;;;;;3.63;2.85;;;;;;;16.98;58.95;99843.72;8367570;28;20044;-72
2022/05/05 10:51:05;;;;;;;6.18;2.95;;;;;;;16.92;58.29;99839.47;8350119;28;20048;-72
2022/05/05 10:55:32;;;;;;;9.88;3.10;;;;;;;17.12;56.56;99830.28;8364393;28;20036;-72
2022/05/05 11:00:13;;;;;;;5.70;3.28;;;;;;;17.43;58.26;99839.13;8367409;28;20063;-74
2022/05/05 11:04:15;;;;;;;7.40;2.90;;;;;;;17.53;57.24;99847.63;8356674;28;20040;-72
2022/05/05 11:08:20;;;;;;;8.27;2.83;;;;;;;17.43;53.54;99843.53;8368530;28;20045;-72
2022/05/05 11:12:23;;;;;;;8.50;2.83;;;;;;;17.39;55.80;99837.47;8366329;28;20129;-72
2022/05/05 11:25:10;;;;;;;3.47;3.03;;;;;;;17.54;51.78;99833.59;8384500;28;20037;-72
2022/05/05 11:29:16;;;;;;;5.72;2.78;;;;;;;17.66;52.40;99842.94;8362733;28;20076;-72
2022/05/05 11:33:19;;;;;;;6.00;3.05;;;;;;;17.77;53.66;99849.66;8362325;28;20048;-72
2022/05/05 11:37:21;;;;;;;7.30;3.08;;;;;;;17.77;51.61;99844.41;8363985;28;20160;-72
2022/05/05 11:41:23;;;;;;;6.30;4.00;;;;;;;17.76;51.24;99844.41;8386209;28;20076;-72
2022/05/05 11:45:27;;;;;;;4.43;3.75;;;;;;;17.68;51.63;99849.88;8397831;28;20055;-72
2022/05/05 11:49:32;;;;;;;7.15;3.25;;;;;;;17.56;52.53;99844.91;8391779;28;20131;-72
2022/05/05 11:53:35;;;;;;;15.25;3.65;;;;;;;17.60;52.90;99840.47;8358778;28;20526;-73
2022/05/05 11:57:39;;;;;;;6.68;3.78;;;;;;;17.70;53.69;99836.72;8371003;28;20051;-73
2022/05/05 12:01:41;;;;;;;6.82;4.38;;;;;;;17.69;52.06;99837.63;8363840;28;20055;-73
2022/05/05 12:05:43;;;;;;;8.65;4.60;;;;;;;17.79;51.80;99833.88;8391595;28;20063;-72
2022/05/05 12:09:45;;;;;;;5.10;3.43;;;;;;;18.00;51.65;99835.03;8390271;28;20155;-72
2022/05/05 12:13:49;;;;;;;6.30;3.03;;;;;;;18.21;52.98;99826.56;8375058;28;20068;-72
2022/05/05 12:17:57;;;;;;;8.32;3.15;;;;;;;18.39;51.20;99830.41;8393967;28;20076;-72
2022/05/05 12:21:59;;;;;;;7.72;3.08;;;;;;;18.48;50.33;99824.00;8363995;28;20272;-72
2022/05/05 12:26:02;;;;;;;8.20;3.17;;;;;;;18.52;51.09;99830.94;8365308;28;20119;-72
2022/05/05 12:30:04;;;;;;;5.32;3.13;;;;;;;18.64;49.99;99827.94;8391960;28;20059;-72
2022/05/05 12:34:05;;;;;;;6.35;2.97;;;;;;;18.79;50.81;99821.34;8394962;28;20071;-72
2022/05/05 12:38:09;;;;;;;6.53;2.60;;;;;;;18.85;49.40;99822.03;8398939;28;20059;-73
2022/05/05 12:42:10;;;;;;;6.78;2.42;;;;;;;19.00;48.39;99823.31;8353203;28;20041;-72
2022/05/05 12:46:15;;;;;;;5.07;2.70;;;;;;;19.12;45.97;99827.31;8394300;28;20072;-72
2022/05/05 12:50:29;;;;;;;5.93;2.70;;;;;;;19.20;47.99;99818.25;8370311;28;20044;-73
2022/05/05 13:03:12;;;;;;;2.57;1.77;;;;;;;19.16;46.86;99815.78;8385183;28;20044;-72
2022/05/05 13:07:14;;;;;;;6.75;3.40;;;;;;;19.13;47.74;99821.16;8383612;28;20103;-73
2022/05/05 13:11:17;;;;;;;6.55;2.53;;;;;;;19.00;45.90;99820.66;8386912;28;20435;-72
2022/05/05 13:15:19;;;;;;;7.00;2.72;;;;;;;18.99;47.97;99818.94;8388480;28;20040;-72
2022/05/05 13:19:20;;;;;;;4.10;2.58;;;;;;;18.95;47.83;99810.28;8395434;28;20079;-72
2022/05/05 13:23:22;;;;;;;1.30;0.95;;;;;;;18.99;45.68;99809.28;8390975;28;20050;-72
2022/05/05 13:27:23;;;;;;;1.30;0.82;;;;;;;19.01;45.46;99804.81;8364222;28;20071;-72
2022/05/05 13:31:25;;;;;;;3.22;1.92;;;;;;;18.94;45.16;99798.06;8391223;28;20048;-71
2022/05/05 13:35:26;;;;;;;3.43;1.60;;;;;;;18.91;46.79;99798.16;8388234;28;20052;-71
2022/05/05 13:39:28;;;;;;;4.57;1.75;;;;;;;19.01;48.22;99802.19;8388780;28;20398;-72
2022/05/05 13:43:30;;;;;;;5.95;2.15;;;;;;;19.10;49.10;99798.41;8378078;28;20043;-71
2022/05/05 13:47:31;;;;;;;5.85;2.22;;;;;;;19.21;48.45;99792.78;8368629;28;20083;-71
2022/05/05 13:51:33;;;;;;;8.98;2.05;;;;;;;19.39;46.69;99786.94;8385120;28;20052;-71
2022/05/05 13:55:55;;;;;;;3.17;1.77;;;;;;;19.33;45.34;99790.63;8358187;28;20044;-71
2022/05/05 14:00:03;;;;;;;3.88;1.90;;;;;;;19.34;45.53;99788.84;8356265;28;20544;-71
2022/05/05 14:04:13;;;;;;;3.08;1.75;;;;;;;19.42;45.66;99788.59;8393058;28;20051;-71
2022/05/05 14:12:34;;;;;;;3.50;1.92;;;;;;;19.73;42.06;99777.84;8367540;28;20043;-71
2022/05/05 14:16:36;;;;;;;6.32;2.20;;;;;;;19.92;44.45;99779.78;8351502;28;20470;-71
2022/05/05 14:20:38;;;;;;;7.05;2.35;;;;;;;20.23;44.64;99774.25;8357893;28;20059;-71
2022/05/05 14:24:39;;;;;;;4.18;2.40;;;;;;;20.56;43.36;99778.31;8374681;28;20404;-71
2022/05/05 14:28:41;;;;;;;8.07;3.45;;;;;;;20.72;41.73;99777.66;8361652;28;20048;-72
2022/05/05 14:32:42;;;;;;;3.30;3.00;;;;;;;20.54;41.31;99772.25;8366223;28;20040;-72
2022/05/05 14:36:44;;;;;;;4.18;2.03;;;;;;;20.50;42.07;99774.16;8382429;28;20067;-72
2022/05/05 14:40:45;;;;;;;3.75;1.90;;;;;;;20.43;43.69;99768.22;8354597;28;20040;-72
2022/05/05 14:44:47;;;;;;;4.15;1.98;;;;;;;20.34;43.10;99763.28;8374747;28;20058;-72
2022/05/05 14:48:51;;;;;;;8.43;2.75;;;;;;;20.10;41.91;99759.78;8374361;28;20053;-72
2022/05/05 14:52:53;;;;;;;3.03;1.80;;;;;;;20.07;43.31;99762.53;8377742;28;20515;-73
2022/05/05 14:56:55;;;;;;;6.72;2.20;;;;;;;20.25;43.80;99754.84;8377852;28;20060;-72
2022/05/05 15:00:57;;;;;;;2.75;1.88;;;;;;;20.51;42.56;99755.63;8385160;28;20967;-72
2022/05/05 15:04:59;;;;;;;3.13;2.30;;;;;;;20.57;42.12;99757.16;8374470;28;20061;-72
2022/05/05 15:09:00;;;;;;;;;;;;;;;20.61;42.94;99763.16;8371524;28;20051;-72
2022/05/05 15:13:02;;;;;;;3.35;1.50;;;;;;;20.61;41.45;99755.25;8374269;28;19939;-72
2022/05/05 15:17:05;;;;;;;4.45;2.78;;;;;;;20.74;40.77;99752.06;8378414;28;20072;-72
2022/05/05 15:21:06;;;;;;;5.00;3.13;;;;;;;20.78;39.69;99758.94;8356287;28;20139;-72
2022/05/05 15:25:11;;;;;;;8.43;2.75;;;;;;;20.68;41.22;99762.88;8370017;28;20060;-72
2022/05/05 15:29:13;;;;;;;6.50;2.60;;;;;;;20.50;41.45;99767.09;8369748;28;20119;-72
2022/05/05 15:33:15;;;;;;;8.55;3.60;;;;;;;20.32;39.96;99766.91;8382665;28;20131;-72
2022/05/05 15:37:16;;;;;;;6.18;3.22;;;;;;;20.02;41.62;99768.91;8379421;28;20485;-72
2022/05/05 15:41:18;;;;;;;3.80;2.67;;;;;;;19.90;42.36;99770.22;8360609;28;20415;-72
2022/05/05 15:45:20;;;;;;;4.95;2.60;;;;;;;19.91;43.68;99774.56;8376283;28;20087;-72
2022/05/05 15:49:21;;;;;;;5.57;1.90;;;;;;;19.91;44.71;99772.78;8368249;28;20032;-72
2022/05/05 15:53:23;;;;;;;3.03;2.28;;;;;;;19.79;44.28;99762.72;8364056;28;20076;-73
2022/05/05 15:57:29;;;;;;;4.38;2.28;;;;;;;19.74;44.65;99769.03;8389195;28;20036;-73
2022/05/05 16:01:30;;;;;;;5.88;2.83;;;;;;;19.87;44.84;99778.22;8378357;28;20508;-73
2022/05/05 16:05:33;;;;;;;;;;;;;;;19.80;44.25;99772.34;8370933;28;20128;-72
2022/05/05 16:09:34;;;;;;;5.53;2.25;;;;;;;19.79;45.00;99781.16;8376237;28;19924;-72
2022/05/05 16:13:36;;;;;;;4.20;2.13;;;;;;;19.92;44.97;99778.91;8347806;28;20163;-73
2022/05/05 16:17:38;;;;;;;7.22;2.85;;;;;;;20.02;44.40;99777.69;8368402;28;20082;-72
2022/05/05 16:21:40;;;;;;;8.32;3.65;;;;;;;20.13;44.40;99766.75;8352277;28;20055;-73
2022/05/05 16:30:08;;;;;;;12.77;3.00;;;;;;;20.16;44.39;99769.25;8392390;28;20052;-72
2022/05/05 16:34:10;;;;;;;3.50;2.28;;;;;;;19.97;45.85;99770.88;8358927;28;20084;-73
2022/05/05 16:38:11;;;;;;;7.63;3.00;;;;;;;19.78;44.33;99771.53;8391628;28;20782;-72
2022/05/05 16:42:13;;;;;;;3.92;2.95;;;;;;;19.59;44.31;99773.97;8369193;28;20055;-73
2022/05/05 16:46:15;;;;;;;9.98;2.83;;;;;;;19.50;45.56;99776.00;8382822;28;20076;-73
2022/05/05 16:50:18;;;;;;;6.43;2.67;;;;;;;19.37;45.65;99778.19;8364927;28;20436;-72
2022/05/05 16:54:21;;;;;;;4.75;2.45;;;;;;;19.25;46.91;99782.13;8394769;28;20399;-73
2022/05/05 16:58:22;;;;;;;;;;;;;;;19.23;47.97;99785.72;8387965;28;20533;-72
2022/05/05 17:02:24;;;;;;;7.50;2.85;;;;;;;19.21;46.83;99780.50;8380020;28;20324;-73
2022/05/05 17:06:25;;;;;;;7.00;2.83;;;;;;;19.15;47.79;99783.31;8392996;28;20078;-72
2022/05/05 17:10:27;;;;;;;2.72;2.42;;;;;;;19.05;47.61;99778.44;8384946;28;20131;-73
2022/05/05 17:14:29;;;;;;;6.78;3.08;;;;;;;18.98;47.14;99777.75;8364019;28;20090;-73
2022/05/05 17:18:30;;;;;;;5.70;2.58;;;;;;;18.98;47.45;99775.97;8391496;28;20075;-73
2022/05/05 17:22:32;;;;;;;5.85;3.55;;;;;;;18.94;47.38;99779.63;8392774;28;20875;-72
2022/05/05 17:26:35;;;;;;;4.78;3.35;;;;;;;18.78;46.99;99788.91;8370392;28;20048;-72
2022/05/05 17:30:36;;;;;;;;;;;;;;;18.63;47.30;99789.38;8387400;28;20055;-73
2022/05/05 17:34:38;;;;;;;4.50;2.70;;;;;;;18.50;50.39;99786.25;8394185;28;20247;-72
2022/05/05 17:38:39;;;;;;;5.85;2.38;;;;;;;18.39;50.81;99785.72;8367597;28;20337;-73
2022/05/05 17:42:41;;;;;;;6.57;1.93;;;;;;;18.33;51.93;99793.78;8369538;28;20052;-73
2022/05/05 17:51:04;;;;;;;4.18;2.35;;;;;;;18.09;53.47;99796.22;8365757;28;20062;-73
2022/05/05 17:55:05;;;;;;;7.07;2.88;;;;;;;17.97;53.43;99795.72;8378904;28;20123;-73
2022/05/05 17:59:07;;;;;;;3.92;2.15;;;;;;;17.85;53.95;99801.31;8388065;28;20055;-73
2022/05/05 18:03:09;;;;;;;5.22;2.53;;;;;;;17.71;55.95;99799.03;8384861;28;20429;-74
2022/05/05 18:07:11;;;;;;;4.28;2.35;;;;;;;17.50;55.68;99798.69;8390001;28;20776;-73
2022/05/05 18:11:12;;;;;;;5.23;1.90;;;;;;;17.29;58.39;99807.09;8386798;28;20044;-73
2022/05/05 18:15:16;;;;;;;5.72;1.90;;;;;;;17.10;58.44;99809.31;8383556;28;20500;-73
2022/05/05 18:19:18;;;;;;;5.30;1.40;;;;;;;16.89;60.35;99808.06;8380773;28;20048;-73
2022/05/05 18:23:20;;;;;;;;;;;;;;;16.72;61.68;99812.00;8367073;28;20048;-73
2022/05/05 18:27:21;;;;;;;3.20;1.27;;;;;;;16.52;62.72;99812.41;8385773;28;20657;-73
2022/05/05 18:31:23;;;;;;;5.03;1.65;;;;;;;16.30;63.24;99818.06;8386551;28;20058;-73
2022/05/05 18:35:25;;;;;;;4.07;1.20;;;;;;;16.10;62.36;99822.84;8381123;28;20087;-73
2022/05/05 18:39:26;;;;;;;6.07;1.87;;;;;;;15.85;64.25;99821.63;8384923;28;20122;-74
2022/05/05 18:43:28;;;;;;;6.10;1.97;;;;;;;15.58;65.73;99828.19;8382484;28;20052;-73
2022/05/05 18:47:31;;;;;;;;;;;;;;;15.33;66.16;99830.38;8379999;28;20359;-73
2022/05/05 18:51:33;;;;;;;5.18;1.35;;;;;;;15.11;68.37;99835.09;8388219;28;19925;-73
2022/05/05 18:55:35;;;;;;;6.05;1.60;;;;;;;14.94;69.85;99839.72;8379846;28;20477;-72
2022/05/05 18:59:38;;;;;;;4.15;1.40;;;;;;;14.77;69.87;99843.44;8369478;28;20040;-72
2022/05/05 19:03:40;;;;;;;6.65;2.38;;;;;;;14.59;70.80;99848.91;8369311;28;20106;-71
2022/05/05 19:07:42;;;;;;;;;;;;;;;14.51;72.11;99851.59;8395685;28;20051;-71
2022/05/05 19:11:44;;;;;;;5.38;1.50;;;;;;;14.42;72.30;99859.53;8387905;28;20023;-71
2022/05/05 19:15:45;;;;;;;5.40;1.60;;;;;;;14.34;73.08;99866.59;8365263;28;20076;-71
2022/05/05 19:19:48;;;;;;;4.57;1.53;;;;;;;14.31;72.70;99879.69;8365964;28;20123;-72
2022/05/05 19:23:50;;;;;;;4.55;1.77;;;;;;;14.31;72.70;99881.44;8387202;28;20126;-72
2022/05/05 19:27:52;;;;;;;5.22;1.77;;;;;;;14.20;73.28;99885.06;8393710;28;20037;-71
2022/05/05 19:31:53;;;;;;;3.60;1.60;;;;;;;14.09;74.05;99888.66;8374303;28;20455;-72
2022/05/05 19:35:55;;;;;;;6.33;1.83;;;;;;;14.01;74.09;99895.72;8393314;28;20044;-72
2022/05/05 19:39:57;;;;;;;4.40;2.00;;;;;;;13.99;75.18;99898.31;8387414;28;20128;-71
2022/05/05 19:43:59;;;;;;;6.22;1.75;;;;;;;13.94;74.76;99902.75;8392271;28;20045;-72
2022/05/05 19:48:00;;;;;;;3.73;1.10;;;;;;;13.91;75.54;99908.00;8386897;28;20071;-73
2022/05/05 19:52:04;;;;;;;4.10;1.40;;;;;;;13.88;76.58;99908.91;8385848;28;20152;-73
2022/05/05 20:09:07;;;;;;;3.03;1.73;;;;;;;13.69;77.61;99927.34;8387608;28;20056;-71
2022/05/05 20:13:08;;;;;;;;;;;;;;;13.61;78.80;99932.59;8385451;28;20080;-71
2022/05/05 20:17:10;;;;;;;2.10;1.30;;;;;;;13.56;78.58;99937.88;8367123;28;20473;-71